sensor_id;sensor_type;location;lat;lon;timestamp;P1;durP1;ratioP1;P2;durP2;ratioP2
20699;SDS011;10511;51.232;9.420;2023-06-04T00:02:07;0.80;;;0.80;;
20699;SDS011;10511;51.232;9.420;2023-06-04T00:04:35;0.70;;;0.70;;
20699;SDS011;10511;51.232;9.420;2023-06-04T00:07:04;0.70;;;0.70;;
20699;SDS011;10511;51.232;9.420;2023-06-04T00:09:31;0.80;;;0.80;;
20699;SDS011;10511;51.232;9.420;2023-06-04T00:11:58;0.83;;;0.83;;
20699;SDS011;10511;51.232;9.420;2023-06-04T00:14:25;0.70;;;0.70;;
20699;SDS011;10511;51.232;9.420;2023-06-04T00:16:52;0.80;;;0.80;;
20699;SDS011;10511;51.232;9.420;2023-06-04T00:19:18;0.70;;;0.70;;
20699;SDS011;10511;51.232;9.420;2023-06-04T00:21:45;0.80;;;0.80;;
20699;SDS011;10511;51.232;9.420;2023-06-04T00:24:14;0.70;;;0.70;;
20699;SDS011;10511;51.232;9.420;2023-06-04T00:26:40;0.70;;;0.70;;
20699;SDS011;10511;51.232;9.420;2023-06-04T00:29:07;0.80;;;0.80;;
20699;SDS011;10511;51.232;9.420;2023-06-04T00:31:34;0.70;;;0.70;;
20699;SDS011;10511;51.232;9.420;2023-06-04T00:34:02;0.70;;;0.70;;
20699;SDS011;10511;51.232;9.420;2023-06-04T00:36:30;0.77;;;0.77;;
20699;SDS011;10511;51.232;9.420;2023-06-04T00:38:57;0.70;;;0.70;;
20699;SDS011;10511;51.232;9.420;2023-06-04T00:41:26;0.70;;;0.70;;
20699;SDS011;10511;51.232;9.420;2023-06-04T00:43:52;0.80;;;0.80;;
20699;SDS011;10511;51.232;9.420;2023-06-04T00:46:22;0.80;;;0.80;;
20699;SDS011;10511;51.232;9.420;2023-06-04T00:48:50;0.80;;;0.80;;
20699;SDS011;10511;51.232;9.420;2023-06-04T00:51:18;0.80;;;0.80;;
20699;SDS011;10511;51.232;9.420;2023-06-04T00:53:45;0.80;;;0.80;;
20699;SDS011;10511;51.232;9.420;2023-06-04T00:56:12;0.80;;;0.80;;
20699;SDS011;10511;51.232;9.420;2023-06-04T00:58:40;0.80;;;0.80;;
20699;SDS011;10511;51.232;9.420;2023-06-04T01:01:10;0.73;;;0.73;;
20699;SDS011;10511;51.232;9.420;2023-06-04T01:03:42;0.70;;;0.70;;
20699;SDS011;10511;51.232;9.420;2023-06-04T01:06:13;0.70;;;0.70;;
20699;SDS011;10511;51.232;9.420;2023-06-04T01:08:48;0.80;;;0.80;;
20699;SDS011;10511;51.232;9.420;2023-06-04T01:11:19;0.90;;;0.90;;
20699;SDS011;10511;51.232;9.420;2023-06-04T01:13:57;0.70;;;0.70;;
20699;SDS011;10511;51.232;9.420;2023-06-04T01:16:24;0.80;;;0.80;;
20699;SDS011;10511;51.232;9.420;2023-06-04T01:18:55;0.70;;;0.70;;
20699;SDS011;10511;51.232;9.420;2023-06-04T01:21:24;0.70;;;0.70;;
20699;SDS011;10511;51.232;9.420;2023-06-04T01:23:55;0.70;;;0.70;;
20699;SDS011;10511;51.232;9.420;2023-06-04T01:26:26;0.70;;;0.70;;
20699;SDS011;10511;51.232;9.420;2023-06-04T01:28:55;0.77;;;0.77;;
20699;SDS011;10511;51.232;9.420;2023-06-04T01:31:23;0.70;;;0.70;;
20699;SDS011;10511;51.232;9.420;2023-06-04T01:33:52;0.70;;;0.70;;
20699;SDS011;10511;51.232;9.420;2023-06-04T01:36:19;0.77;;;0.77;;
20699;SDS011;10511;51.232;9.420;2023-06-04T01:38:46;0.77;;;0.77;;
20699;SDS011;10511;51.232;9.420;2023-06-04T01:41:13;0.80;;;0.80;;
20699;SDS011;10511;51.232;9.420;2023-06-04T01:43:40;0.80;;;0.80;;
20699;SDS011;10511;51.232;9.420;2023-06-04T01:46:07;0.70;;;0.70;;
20699;SDS011;10511;51.232;9.420;2023-06-04T01:48:35;0.77;;;0.77;;
20699;SDS011;10511;51.232;9.420;2023-06-04T01:51:02;0.80;;;0.80;;
20699;SDS011;10511;51.232;9.420;2023-06-04T01:53:30;0.70;;;0.70;;
20699;SDS011;10511;51.232;9.420;2023-06-04T01:55:57;0.80;;;0.80;;
20699;SDS011;10511;51.232;9.420;2023-06-04T01:58:24;0.73;;;0.73;;
20699;SDS011;10511;51.232;9.420;2023-06-04T02:00:52;0.73;;;0.73;;
20699;SDS011;10511;51.232;9.420;2023-06-04T02:03:19;0.80;;;0.80;;
20699;SDS011;10511;51.232;9.420;2023-06-04T02:05:48;0.90;;;0.90;;
20699;SDS011;10511;51.232;9.420;2023-06-04T02:08:15;0.80;;;0.80;;
20699;SDS011;10511;51.232;9.420;2023-06-04T02:10:44;0.80;;;0.80;;
20699;SDS011;10511;51.232;9.420;2023-06-04T02:13:11;0.80;;;0.80;;
20699;SDS011;10511;51.232;9.420;2023-06-04T02:15:38;0.80;;;0.80;;
20699;SDS011;10511;51.232;9.420;2023-06-04T02:18:12;0.80;;;0.80;;
20699;SDS011;10511;51.232;9.420;2023-06-04T02:20:46;0.90;;;0.90;;
20699;SDS011;10511;51.232;9.420;2023-06-04T02:23:16;0.90;;;0.90;;
20699;SDS011;10511;51.232;9.420;2023-06-04T02:25:44;0.90;;;0.90;;
20699;SDS011;10511;51.232;9.420;2023-06-04T02:28:11;0.80;;;0.80;;
20699;SDS011;10511;51.232;9.420;2023-06-04T02:30:38;0.80;;;0.80;;
20699;SDS011;10511;51.232;9.420;2023-06-04T02:33:05;0.90;;;0.90;;
20699;SDS011;10511;51.232;9.420;2023-06-04T02:35:34;0.80;;;0.80;;
20699;SDS011;10511;51.232;9.420;2023-06-04T02:38:03;0.80;;;0.80;;
20699;SDS011;10511;51.232;9.420;2023-06-04T02:40:30;0.90;;;0.90;;
20699;SDS011;10511;51.232;9.420;2023-06-04T02:42:57;0.80;;;0.80;;
20699;SDS011;10511;51.232;9.420;2023-06-04T02:45:24;0.77;;;0.77;;
20699;SDS011;10511;51.232;9.420;2023-06-04T02:47:51;0.80;;;0.80;;
20699;SDS011;10511;51.232;9.420;2023-06-04T02:50:18;0.80;;;0.80;;
20699;SDS011;10511;51.232;9.420;2023-06-04T02:52:45;0.80;;;0.80;;
20699;SDS011;10511;51.232;9.420;2023-06-04T02:55:14;0.80;;;0.80;;
20699;SDS011;10511;51.232;9.420;2023-06-04T02:57:41;0.80;;;0.80;;
20699;SDS011;10511;51.232;9.420;2023-06-04T03:00:09;0.70;;;0.70;;
20699;SDS011;10511;51.232;9.420;2023-06-04T03:02:39;0.80;;;0.80;;
20699;SDS011;10511;51.232;9.420;2023-06-04T03:05:08;0.80;;;0.80;;
20699;SDS011;10511;51.232;9.420;2023-06-04T03:07:36;0.80;;;0.80;;
20699;SDS011;10511;51.232;9.420;2023-06-04T03:10:03;0.80;;;0.80;;
20699;SDS011;10511;51.232;9.420;2023-06-04T03:12:31;0.80;;;0.80;;
20699;SDS011;10511;51.232;9.420;2023-06-04T03:14:58;0.80;;;0.80;;
20699;SDS011;10511;51.232;9.420;2023-06-04T03:17:25;0.80;;;0.80;;
20699;SDS011;10511;51.232;9.420;2023-06-04T03:19:52;0.80;;;0.80;;
20699;SDS011;10511;51.232;9.420;2023-06-04T03:22:21;0.80;;;0.80;;
20699;SDS011;10511;51.232;9.420;2023-06-04T03:24:48;0.80;;;0.80;;
20699;SDS011;10511;51.232;9.420;2023-06-04T03:27:17;0.90;;;0.90;;
20699;SDS011;10511;51.232;9.420;2023-06-04T03:29:46;0.90;;;0.90;;
20699;SDS011;10511;51.232;9.420;2023-06-04T03:32:13;0.90;;;0.90;;
20699;SDS011;10511;51.232;9.420;2023-06-04T03:34:41;0.80;;;0.80;;
20699;SDS011;10511;51.232;9.420;2023-06-04T03:37:08;0.90;;;0.90;;
20699;SDS011;10511;51.232;9.420;2023-06-04T03:39:35;0.90;;;0.90;;
20699;SDS011;10511;51.232;9.420;2023-06-04T03:42:02;0.80;;;0.80;;
20699;SDS011;10511;51.232;9.420;2023-06-04T03:44:29;0.80;;;0.80;;
20699;SDS011;10511;51.232;9.420;2023-06-04T03:46:58;0.80;;;0.80;;
20699;SDS011;10511;51.232;9.420;2023-06-04T03:49:25;0.90;;;0.90;;
20699;SDS011;10511;51.232;9.420;2023-06-04T03:51:51;0.90;;;0.90;;
20699;SDS011;10511;51.232;9.420;2023-06-04T03:54:18;0.80;;;0.80;;
20699;SDS011;10511;51.232;9.420;2023-06-04T03:56:45;0.87;;;0.87;;
20699;SDS011;10511;51.232;9.420;2023-06-04T03:59:12;0.80;;;0.80;;
20699;SDS011;10511;51.232;9.420;2023-06-04T04:01:39;0.80;;;0.80;;
20699;SDS011;10511;51.232;9.420;2023-06-04T04:04:09;0.80;;;0.80;;
20699;SDS011;10511;51.232;9.420;2023-06-04T04:06:36;0.80;;;0.80;;
20699;SDS011;10511;51.232;9.420;2023-06-04T04:09:03;0.80;;;0.80;;
20699;SDS011;10511;51.232;9.420;2023-06-04T04:11:31;0.80;;;0.80;;
20699;SDS011;10511;51.232;9.420;2023-06-04T04:13:58;0.87;;;0.87;;
20699;SDS011;10511;51.232;9.420;2023-06-04T04:16:25;0.70;;;0.70;;
20699;SDS011;10511;51.232;9.420;2023-06-04T04:18:53;0.70;;;0.70;;
20699;SDS011;10511;51.232;9.420;2023-06-04T04:21:21;0.70;;;0.70;;
20699;SDS011;10511;51.232;9.420;2023-06-04T04:23:49;0.80;;;0.80;;
20699;SDS011;10511;51.232;9.420;2023-06-04T04:26:16;0.83;;;0.83;;
20699;SDS011;10511;51.232;9.420;2023-06-04T04:28:43;0.80;;;0.80;;
20699;SDS011;10511;51.232;9.420;2023-06-04T04:31:10;0.90;;;0.90;;
20699;SDS011;10511;51.232;9.420;2023-06-04T04:33:37;0.80;;;0.80;;
20699;SDS011;10511;51.232;9.420;2023-06-04T04:36:05;1.00;;;1.00;;
20699;SDS011;10511;51.232;9.420;2023-06-04T04:38:39;0.80;;;0.80;;
20699;SDS011;10511;51.232;9.420;2023-06-04T04:41:06;0.80;;;0.80;;
20699;SDS011;10511;51.232;9.420;2023-06-04T04:43:34;0.80;;;0.80;;
20699;SDS011;10511;51.232;9.420;2023-06-04T04:46:02;0.80;;;0.80;;
20699;SDS011;10511;51.232;9.420;2023-06-04T04:48:30;0.80;;;0.80;;
20699;SDS011;10511;51.232;9.420;2023-06-04T04:50:57;0.80;;;0.80;;
20699;SDS011;10511;51.232;9.420;2023-06-04T04:53:25;0.80;;;0.80;;
20699;SDS011;10511;51.232;9.420;2023-06-04T04:55:54;0.80;;;0.80;;
20699;SDS011;10511;51.232;9.420;2023-06-04T04:58:21;0.80;;;0.80;;
20699;SDS011;10511;51.232;9.420;2023-06-04T05:00:48;0.80;;;0.80;;
20699;SDS011;10511;51.232;9.420;2023-06-04T05:03:15;0.87;;;0.87;;
20699;SDS011;10511;51.232;9.420;2023-06-04T05:05:41;0.80;;;0.80;;
20699;SDS011;10511;51.232;9.420;2023-06-04T05:08:09;0.80;;;0.80;;
20699;SDS011;10511;51.232;9.420;2023-06-04T05:10:36;0.90;;;0.90;;
20699;SDS011;10511;51.232;9.420;2023-06-04T05:13:04;0.80;;;0.80;;
20699;SDS011;10511;51.232;9.420;2023-06-04T05:15:31;0.80;;;0.80;;
20699;SDS011;10511;51.232;9.420;2023-06-04T05:17:58;0.80;;;0.80;;
20699;SDS011;10511;51.232;9.420;2023-06-04T05:20:27;0.80;;;0.80;;
20699;SDS011;10511;51.232;9.420;2023-06-04T05:22:54;0.70;;;0.70;;
20699;SDS011;10511;51.232;9.420;2023-06-04T05:25:21;0.70;;;0.70;;
20699;SDS011;10511;51.232;9.420;2023-06-04T05:27:49;0.80;;;0.80;;
20699;SDS011;10511;51.232;9.420;2023-06-04T05:30:17;0.80;;;0.80;;
20699;SDS011;10511;51.232;9.420;2023-06-04T05:32:44;0.80;;;0.80;;
20699;SDS011;10511;51.232;9.420;2023-06-04T05:35:11;0.80;;;0.80;;
20699;SDS011;10511;51.232;9.420;2023-06-04T05:37:38;0.80;;;0.80;;
20699;SDS011;10511;51.232;9.420;2023-06-04T05:40:08;0.80;;;0.80;;
20699;SDS011;10511;51.232;9.420;2023-06-04T05:42:36;0.80;;;0.80;;
20699;SDS011;10511;51.232;9.420;2023-06-04T05:45:04;0.83;;;0.83;;
20699;SDS011;10511;51.232;9.420;2023-06-04T05:47:34;0.80;;;0.80;;
20699;SDS011;10511;51.232;9.420;2023-06-04T05:50:02;0.80;;;0.80;;
20699;SDS011;10511;51.232;9.420;2023-06-04T05:52:31;0.80;;;0.80;;
20699;SDS011;10511;51.232;9.420;2023-06-04T05:54:58;0.90;;;0.90;;
20699;SDS011;10511;51.232;9.420;2023-06-04T05:57:25;0.80;;;0.80;;
20699;SDS011;10511;51.232;9.420;2023-06-04T05:59:52;0.80;;;0.80;;
20699;SDS011;10511;51.232;9.420;2023-06-04T06:02:19;0.70;;;0.70;;
20699;SDS011;10511;51.232;9.420;2023-06-04T06:04:47;0.80;;;0.80;;
20699;SDS011;10511;51.232;9.420;2023-06-04T06:07:14;0.80;;;0.80;;
20699;SDS011;10511;51.232;9.420;2023-06-04T06:09:41;0.80;;;0.80;;
20699;SDS011;10511;51.232;9.420;2023-06-04T06:12:07;0.70;;;0.70;;
20699;SDS011;10511;51.232;9.420;2023-06-04T06:14:34;0.70;;;0.70;;
20699;SDS011;10511;51.232;9.420;2023-06-04T06:17:01;0.73;;;0.73;;
20699;SDS011;10511;51.232;9.420;2023-06-04T06:19:29;0.80;;;0.80;;
20699;SDS011;10511;51.232;9.420;2023-06-04T06:21:57;0.80;;;0.80;;
20699;SDS011;10511;51.232;9.420;2023-06-04T06:24:24;0.70;;;0.70;;
20699;SDS011;10511;51.232;9.420;2023-06-04T06:26:51;0.70;;;0.70;;
20699;SDS011;10511;51.232;9.420;2023-06-04T06:29:18;0.70;;;0.70;;
20699;SDS011;10511;51.232;9.420;2023-06-04T06:31:45;0.80;;;0.80;;
20699;SDS011;10511;51.232;9.420;2023-06-04T06:34:12;0.70;;;0.70;;
20699;SDS011;10511;51.232;9.420;2023-06-04T06:36:39;0.80;;;0.80;;
20699;SDS011;10511;51.232;9.420;2023-06-04T06:39:07;0.70;;;0.70;;
20699;SDS011;10511;51.232;9.420;2023-06-04T06:41:34;0.70;;;0.70;;
20699;SDS011;10511;51.232;9.420;2023-06-04T06:44:01;0.80;;;0.80;;
20699;SDS011;10511;51.232;9.420;2023-06-04T06:46:28;0.70;;;0.70;;
20699;SDS011;10511;51.232;9.420;2023-06-04T06:48:55;0.70;;;0.70;;
20699;SDS011;10511;51.232;9.420;2023-06-04T06:51:21;0.70;;;0.70;;
20699;SDS011;10511;51.232;9.420;2023-06-04T06:53:48;0.77;;;0.77;;
20699;SDS011;10511;51.232;9.420;2023-06-04T06:56:17;0.70;;;0.70;;
20699;SDS011;10511;51.232;9.420;2023-06-04T06:58:44;0.80;;;0.80;;
20699;SDS011;10511;51.232;9.420;2023-06-04T07:01:11;0.70;;;0.70;;
20699;SDS011;10511;51.232;9.420;2023-06-04T07:03:38;0.70;;;0.70;;
20699;SDS011;10511;51.232;9.420;2023-06-04T07:06:05;0.70;;;0.70;;
20699;SDS011;10511;51.232;9.420;2023-06-04T07:08:32;0.70;;;0.70;;
20699;SDS011;10511;51.232;9.420;2023-06-04T07:11:00;0.60;;;0.60;;
20699;SDS011;10511;51.232;9.420;2023-06-04T07:13:30;0.80;;;0.80;;
20699;SDS011;10511;51.232;9.420;2023-06-04T07:16:00;0.70;;;0.70;;
20699;SDS011;10511;51.232;9.420;2023-06-04T07:18:27;0.70;;;0.70;;
20699;SDS011;10511;51.232;9.420;2023-06-04T07:20:54;0.70;;;0.70;;
20699;SDS011;10511;51.232;9.420;2023-06-04T07:23:20;0.70;;;0.70;;
20699;SDS011;10511;51.232;9.420;2023-06-04T07:25:47;0.80;;;0.80;;
20699;SDS011;10511;51.232;9.420;2023-06-04T07:28:14;0.70;;;0.70;;
20699;SDS011;10511;51.232;9.420;2023-06-04T07:30:44;0.70;;;0.70;;
20699;SDS011;10511;51.232;9.420;2023-06-04T07:33:11;0.70;;;0.70;;
20699;SDS011;10511;51.232;9.420;2023-06-04T07:35:38;0.70;;;0.70;;
20699;SDS011;10511;51.232;9.420;2023-06-04T07:38:05;0.70;;;0.70;;
20699;SDS011;10511;51.232;9.420;2023-06-04T07:40:32;0.70;;;0.70;;
20699;SDS011;10511;51.232;9.420;2023-06-04T07:42:59;0.70;;;0.70;;
20699;SDS011;10511;51.232;9.420;2023-06-04T07:45:26;0.70;;;0.70;;
20699;SDS011;10511;51.232;9.420;2023-06-04T07:47:56;0.60;;;0.60;;
20699;SDS011;10511;51.232;9.420;2023-06-04T07:50:22;0.70;;;0.70;;
20699;SDS011;10511;51.232;9.420;2023-06-04T07:52:50;0.70;;;0.70;;
20699;SDS011;10511;51.232;9.420;2023-06-04T07:55:17;0.80;;;0.80;;
20699;SDS011;10511;51.232;9.420;2023-06-04T07:57:44;0.80;;;0.80;;
20699;SDS011;10511;51.232;9.420;2023-06-04T08:00:11;0.70;;;0.70;;
20699;SDS011;10511;51.232;9.420;2023-06-04T08:02:39;0.70;;;0.70;;
20699;SDS011;10511;51.232;9.420;2023-06-04T08:05:08;0.70;;;0.70;;
20699;SDS011;10511;51.232;9.420;2023-06-04T08:07:35;0.70;;;0.70;;
20699;SDS011;10511;51.232;9.420;2023-06-04T08:10:01;0.70;;;0.70;;
20699;SDS011;10511;51.232;9.420;2023-06-04T08:12:28;0.70;;;0.70;;
20699;SDS011;10511;51.232;9.420;2023-06-04T08:14:55;0.70;;;0.70;;
20699;SDS011;10511;51.232;9.420;2023-06-04T08:17:23;0.70;;;0.70;;
20699;SDS011;10511;51.232;9.420;2023-06-04T08:19:51;0.60;;;0.60;;
20699;SDS011;10511;51.232;9.420;2023-06-04T08:22:19;0.60;;;0.60;;
20699;SDS011;10511;51.232;9.420;2023-06-04T08:24:46;0.80;;;0.80;;
20699;SDS011;10511;51.232;9.420;2023-06-04T08:27:13;0.70;;;0.70;;
20699;SDS011;10511;51.232;9.420;2023-06-04T08:29:39;0.70;;;0.70;;
20699;SDS011;10511;51.232;9.420;2023-06-04T08:32:06;0.70;;;0.70;;
20699;SDS011;10511;51.232;9.420;2023-06-04T08:34:33;0.70;;;0.70;;
20699;SDS011;10511;51.232;9.420;2023-06-04T08:37:00;0.70;;;0.70;;
20699;SDS011;10511;51.232;9.420;2023-06-04T08:39:28;0.70;;;0.70;;
20699;SDS011;10511;51.232;9.420;2023-06-04T08:41:56;0.70;;;0.70;;
20699;SDS011;10511;51.232;9.420;2023-06-04T08:44:46;0.70;;;0.70;;
20699;SDS011;10511;51.232;9.420;2023-06-04T08:47:16;0.70;;;0.70;;
20699;SDS011;10511;51.232;9.420;2023-06-04T08:49:47;0.70;;;0.70;;
20699;SDS011;10511;51.232;9.420;2023-06-04T08:52:16;0.70;;;0.70;;
20699;SDS011;10511;51.232;9.420;2023-06-04T08:54:48;0.60;;;0.60;;
20699;SDS011;10511;51.232;9.420;2023-06-04T08:57:16;0.67;;;0.67;;
20699;SDS011;10511;51.232;9.420;2023-06-04T08:59:44;0.70;;;0.70;;
20699;SDS011;10511;51.232;9.420;2023-06-04T09:02:11;0.70;;;0.70;;
20699;SDS011;10511;51.232;9.420;2023-06-04T09:04:39;0.70;;;0.70;;
20699;SDS011;10511;51.232;9.420;2023-06-04T09:07:06;0.70;;;0.70;;
20699;SDS011;10511;51.232;9.420;2023-06-04T09:09:37;0.70;;;0.70;;
20699;SDS011;10511;51.232;9.420;2023-06-04T09:12:07;0.70;;;0.70;;
20699;SDS011;10511;51.232;9.420;2023-06-04T09:14:36;0.70;;;0.70;;
20699;SDS011;10511;51.232;9.420;2023-06-04T09:17:03;0.70;;;0.70;;
20699;SDS011;10511;51.232;9.420;2023-06-04T09:19:30;0.70;;;0.70;;
20699;SDS011;10511;51.232;9.420;2023-06-04T09:21:57;0.70;;;0.70;;
20699;SDS011;10511;51.232;9.420;2023-06-04T09:24:37;0.60;;;0.60;;
20699;SDS011;10511;51.232;9.420;2023-06-04T09:27:10;0.67;;;0.67;;
20699;SDS011;10511;51.232;9.420;2023-06-04T09:29:38;0.60;;;0.60;;
20699;SDS011;10511;51.232;9.420;2023-06-04T09:32:05;0.60;;;0.60;;
20699;SDS011;10511;51.232;9.420;2023-06-04T09:34:32;0.70;;;0.70;;
20699;SDS011;10511;51.232;9.420;2023-06-04T09:37:00;0.70;;;0.70;;
20699;SDS011;10511;51.232;9.420;2023-06-04T09:39:27;0.60;;;0.60;;
20699;SDS011;10511;51.232;9.420;2023-06-04T09:41:57;0.60;;;0.60;;
20699;SDS011;10511;51.232;9.420;2023-06-04T09:44:26;0.67;;;0.67;;
20699;SDS011;10511;51.232;9.420;2023-06-04T09:46:54;0.70;;;0.70;;
20699;SDS011;10511;51.232;9.420;2023-06-04T09:49:21;0.60;;;0.60;;
20699;SDS011;10511;51.232;9.420;2023-06-04T09:51:48;0.50;;;0.50;;
20699;SDS011;10511;51.232;9.420;2023-06-04T09:54:15;0.60;;;0.60;;
20699;SDS011;10511;51.232;9.420;2023-06-04T09:56:42;0.60;;;0.60;;
20699;SDS011;10511;51.232;9.420;2023-06-04T09:59:09;0.70;;;0.70;;
20699;SDS011;10511;51.232;9.420;2023-06-04T10:01:39;0.60;;;0.60;;
20699;SDS011;10511;51.232;9.420;2023-06-04T10:04:08;0.60;;;0.60;;
20699;SDS011;10511;51.232;9.420;2023-06-04T10:06:37;0.70;;;0.70;;
20699;SDS011;10511;51.232;9.420;2023-06-04T10:09:06;0.60;;;0.60;;
20699;SDS011;10511;51.232;9.420;2023-06-04T10:11:34;0.60;;;0.60;;
20699;SDS011;10511;51.232;9.420;2023-06-04T10:14:03;0.60;;;0.60;;
20699;SDS011;10511;51.232;9.420;2023-06-04T10:16:36;0.60;;;0.60;;
20699;SDS011;10511;51.232;9.420;2023-06-04T10:19:06;0.60;;;0.60;;
20699;SDS011;10511;51.232;9.420;2023-06-04T10:21:33;0.60;;;0.60;;
20699;SDS011;10511;51.232;9.420;2023-06-04T10:24:01;0.60;;;0.60;;
20699;SDS011;10511;51.232;9.420;2023-06-04T10:26:28;0.60;;;0.60;;
20699;SDS011;10511;51.232;9.420;2023-06-04T10:28:56;0.60;;;0.60;;
20699;SDS011;10511;51.232;9.420;2023-06-04T10:31:23;0.60;;;0.60;;
20699;SDS011;10511;51.232;9.420;2023-06-04T10:33:54;0.67;;;0.67;;
20699;SDS011;10511;51.232;9.420;2023-06-04T10:36:22;0.83;;;0.83;;
20699;SDS011;10511;51.232;9.420;2023-06-04T10:38:50;0.60;;;0.60;;
20699;SDS011;10511;51.232;9.420;2023-06-04T10:41:19;0.63;;;0.63;;
20699;SDS011;10511;51.232;9.420;2023-06-04T10:43:48;0.63;;;0.63;;
20699;SDS011;10511;51.232;9.420;2023-06-04T10:46:15;0.60;;;0.60;;
20699;SDS011;10511;51.232;9.420;2023-06-04T10:48:46;0.70;;;0.70;;
20699;SDS011;10511;51.232;9.420;2023-06-04T10:51:15;0.70;;;0.70;;
20699;SDS011;10511;51.232;9.420;2023-06-04T10:53:43;0.60;;;0.60;;
20699;SDS011;10511;51.232;9.420;2023-06-04T10:56:10;0.60;;;0.60;;
20699;SDS011;10511;51.232;9.420;2023-06-04T10:58:37;0.60;;;0.60;;
20699;SDS011;10511;51.232;9.420;2023-06-04T11:01:03;0.60;;;0.60;;
20699;SDS011;10511;51.232;9.420;2023-06-04T11:03:34;0.60;;;0.60;;
20699;SDS011;10511;51.232;9.420;2023-06-04T11:06:02;0.60;;;0.60;;
20699;SDS011;10511;51.232;9.420;2023-06-04T11:08:42;0.60;;;0.60;;
20699;SDS011;10511;51.232;9.420;2023-06-04T11:11:12;0.60;;;0.60;;
20699;SDS011;10511;51.232;9.420;2023-06-04T11:13:40;0.60;;;0.60;;
20699;SDS011;10511;51.232;9.420;2023-06-04T11:16:17;0.60;;;0.60;;
20699;SDS011;10511;51.232;9.420;2023-06-04T11:18:53;0.63;;;0.63;;
20699;SDS011;10511;51.232;9.420;2023-06-04T11:21:21;0.60;;;0.60;;
20699;SDS011;10511;51.232;9.420;2023-06-04T11:23:54;0.60;;;0.60;;
20699;SDS011;10511;51.232;9.420;2023-06-04T11:26:21;0.70;;;0.70;;
20699;SDS011;10511;51.232;9.420;2023-06-04T11:28:50;0.50;;;0.50;;
20699;SDS011;10511;51.232;9.420;2023-06-04T11:31:18;0.60;;;0.60;;
20699;SDS011;10511;51.232;9.420;2023-06-04T11:33:46;0.60;;;0.60;;
20699;SDS011;10511;51.232;9.420;2023-06-04T11:36:23;0.50;;;0.50;;
20699;SDS011;10511;51.232;9.420;2023-06-04T11:38:57;0.63;;;0.63;;
20699;SDS011;10511;51.232;9.420;2023-06-04T11:41:26;0.60;;;0.60;;
20699;SDS011;10511;51.232;9.420;2023-06-04T11:43:53;0.60;;;0.60;;
20699;SDS011;10511;51.232;9.420;2023-06-04T11:46:22;0.60;;;0.60;;
20699;SDS011;10511;51.232;9.420;2023-06-04T11:48:50;1.00;;;1.00;;
20699;SDS011;10511;51.232;9.420;2023-06-04T11:51:17;1.10;;;1.10;;
20699;SDS011;10511;51.232;9.420;2023-06-04T11:53:45;0.70;;;0.70;;
20699;SDS011;10511;51.232;9.420;2023-06-04T11:56:13;0.73;;;0.73;;
20699;SDS011;10511;51.232;9.420;2023-06-04T11:58:40;0.60;;;0.60;;
20699;SDS011;10511;51.232;9.420;2023-06-04T12:01:08;0.70;;;0.70;;
20699;SDS011;10511;51.232;9.420;2023-06-04T12:03:36;0.60;;;0.60;;
20699;SDS011;10511;51.232;9.420;2023-06-04T12:06:11;0.70;;;0.70;;
20699;SDS011;10511;51.232;9.420;2023-06-04T12:08:46;0.60;;;0.60;;
20699;SDS011;10511;51.232;9.420;2023-06-04T12:11:28;0.50;;;0.50;;
20699;SDS011;10511;51.232;9.420;2023-06-04T12:13:58;0.60;;;0.60;;
20699;SDS011;10511;51.232;9.420;2023-06-04T12:16:25;0.80;;;0.80;;
20699;SDS011;10511;51.232;9.420;2023-06-04T12:19:03;1.20;;;1.20;;
20699;SDS011;10511;51.232;9.420;2023-06-04T12:21:31;0.70;;;0.70;;
20699;SDS011;10511;51.232;9.420;2023-06-04T12:24:05;0.70;;;0.70;;
20699;SDS011;10511;51.232;9.420;2023-06-04T12:26:34;0.60;;;0.60;;
20699;SDS011;10511;51.232;9.420;2023-06-04T12:29:08;0.70;;;0.70;;
20699;SDS011;10511;51.232;9.420;2023-06-04T12:31:36;0.70;;;0.70;;
20699;SDS011;10511;51.232;9.420;2023-06-04T12:34:03;0.63;;;0.63;;
20699;SDS011;10511;51.232;9.420;2023-06-04T12:36:30;0.60;;;0.60;;
20699;SDS011;10511;51.232;9.420;2023-06-04T12:38:59;0.60;;;0.60;;
20699;SDS011;10511;51.232;9.420;2023-06-04T12:41:27;0.67;;;0.67;;
20699;SDS011;10511;51.232;9.420;2023-06-04T12:43:55;0.67;;;0.67;;
20699;SDS011;10511;51.232;9.420;2023-06-04T12:46:23;0.60;;;0.60;;
20699;SDS011;10511;51.232;9.420;2023-06-04T12:48:50;0.50;;;0.50;;
20699;SDS011;10511;51.232;9.420;2023-06-04T12:51:17;0.73;;;0.73;;
20699;SDS011;10511;51.232;9.420;2023-06-04T12:53:45;0.60;;;0.60;;
20699;SDS011;10511;51.232;9.420;2023-06-04T12:56:12;0.50;;;0.50;;
20699;SDS011;10511;51.232;9.420;2023-06-04T12:58:39;0.53;;;0.53;;
20699;SDS011;10511;51.232;9.420;2023-06-04T13:01:08;0.50;;;0.50;;
20699;SDS011;10511;51.232;9.420;2023-06-04T13:03:37;0.50;;;0.50;;
20699;SDS011;10511;51.232;9.420;2023-06-04T13:06:06;0.50;;;0.50;;
20699;SDS011;10511;51.232;9.420;2023-06-04T13:08:33;0.60;;;0.60;;
20699;SDS011;10511;51.232;9.420;2023-06-04T13:11:00;0.60;;;0.60;;
20699;SDS011;10511;51.232;9.420;2023-06-04T13:13:27;0.87;;;0.87;;
20699;SDS011;10511;51.232;9.420;2023-06-04T13:15:55;0.50;;;0.50;;
20699;SDS011;10511;51.232;9.420;2023-06-04T13:18:23;0.63;;;0.63;;
20699;SDS011;10511;51.232;9.420;2023-06-04T13:20:50;0.50;;;0.50;;
20699;SDS011;10511;51.232;9.420;2023-06-04T13:23:17;0.50;;;0.50;;
20699;SDS011;10511;51.232;9.420;2023-06-04T13:25:44;0.53;;;0.53;;
20699;SDS011;10511;51.232;9.420;2023-06-04T13:28:11;0.50;;;0.50;;
20699;SDS011;10511;51.232;9.420;2023-06-04T13:30:38;0.50;;;0.50;;
20699;SDS011;10511;51.232;9.420;2023-06-04T13:33:05;0.50;;;0.50;;
20699;SDS011;10511;51.232;9.420;2023-06-04T13:35:33;0.50;;;0.50;;
20699;SDS011;10511;51.232;9.420;2023-06-04T13:38:01;0.50;;;0.50;;
20699;SDS011;10511;51.232;9.420;2023-06-04T13:40:30;0.70;;;0.70;;
20699;SDS011;10511;51.232;9.420;2023-06-04T13:42:57;0.50;;;0.50;;
20699;SDS011;10511;51.232;9.420;2023-06-04T13:45:24;0.50;;;0.50;;
20699;SDS011;10511;51.232;9.420;2023-06-04T13:47:51;0.50;;;0.50;;
20699;SDS011;10511;51.232;9.420;2023-06-04T13:50:18;0.50;;;0.50;;
20699;SDS011;10511;51.232;9.420;2023-06-04T13:52:46;0.50;;;0.50;;
20699;SDS011;10511;51.232;9.420;2023-06-04T13:55:13;0.60;;;0.60;;
20699;SDS011;10511;51.232;9.420;2023-06-04T13:57:40;0.60;;;0.60;;
20699;SDS011;10511;51.232;9.420;2023-06-04T14:00:07;0.57;;;0.57;;
20699;SDS011;10511;51.232;9.420;2023-06-04T14:02:35;0.60;;;0.60;;
20699;SDS011;10511;51.232;9.420;2023-06-04T14:05:01;0.50;;;0.50;;
20699;SDS011;10511;51.232;9.420;2023-06-04T14:07:28;0.50;;;0.50;;
20699;SDS011;10511;51.232;9.420;2023-06-04T14:09:57;0.60;;;0.60;;
20699;SDS011;10511;51.232;9.420;2023-06-04T14:12:23;0.53;;;0.53;;
20699;SDS011;10511;51.232;9.420;2023-06-04T14:14:51;0.60;;;0.60;;
20699;SDS011;10511;51.232;9.420;2023-06-04T14:17:17;0.50;;;0.50;;
20699;SDS011;10511;51.232;9.420;2023-06-04T14:19:44;0.60;;;0.60;;
20699;SDS011;10511;51.232;9.420;2023-06-04T14:22:11;0.70;;;0.70;;
20699;SDS011;10511;51.232;9.420;2023-06-04T14:24:39;0.60;;;0.60;;
20699;SDS011;10511;51.232;9.420;2023-06-04T14:27:08;0.50;;;0.50;;
20699;SDS011;10511;51.232;9.420;2023-06-04T14:29:35;0.57;;;0.57;;
20699;SDS011;10511;51.232;9.420;2023-06-04T14:32:02;0.50;;;0.50;;
20699;SDS011;10511;51.232;9.420;2023-06-04T14:34:29;0.50;;;0.50;;
20699;SDS011;10511;51.232;9.420;2023-06-04T14:36:57;0.57;;;0.57;;
20699;SDS011;10511;51.232;9.420;2023-06-04T14:39:25;0.50;;;0.50;;
20699;SDS011;10511;51.232;9.420;2023-06-04T14:41:52;0.50;;;0.50;;
20699;SDS011;10511;51.232;9.420;2023-06-04T14:44:20;0.60;;;0.60;;
20699;SDS011;10511;51.232;9.420;2023-06-04T14:46:48;0.50;;;0.50;;
20699;SDS011;10511;51.232;9.420;2023-06-04T14:49:16;0.50;;;0.50;;
20699;SDS011;10511;51.232;9.420;2023-06-04T14:51:43;0.60;;;0.60;;
20699;SDS011;10511;51.232;9.420;2023-06-04T14:54:10;0.50;;;0.50;;